Flood From: 22-02-2018 06:00 Until: 23-02-2018 06:00 warning for: Flood Level: Yellow info button

Although rather usual in this region, locally or potentially dangerous phenomena are expected. (such as local winds, summer thunderstorms, rising streams or high waves) Be aware and pay attention to the latest weather updates, especially if you carry out activities exposed to weather or close to a stream or shoreline. 


Meteo18 Weather Cam more information Meteo18 Weather Cam


Thunder radar more information blitzortung!


Rain radar more information rain snow radar


Visit our other weather sites:

Template documentation
and downloads

And another site



Weather Underground History page Text

Daily Summary for June 10, 2017 Units:  English    Metric   Both
« Previous Day
Next Day »
Daily Weekly Monthly Yearly Custom
  High: Low: Average:
Temperature: TemperatureC °F 11.6 °F 20.2 °F
Dew Point: DewpointC °F 10.2 °F 12.8 °F
Humidity: Humidity % 36 % 66 %
Wind Speed: WindSpeedKMH mph 0.0 mph 1.6 mph
Wind Gust: WindSpeedGustKMH mph - -
Wind:- - SSW
Pressure: PressurehPa in 1019.9 in -
Precipitation: 0.0 in    
Historical Graphs
 
 
Tabular Data for June 10, 2017
Time Temperature Dew Point Pressure Wind Wind Speed Wind Gust Humidity Rainfall Rate (Hourly)
TemperatureC °F DewpointC °F PressurehPa in Calm     Humidity % HourlyPrecipMM in
00:02 16.2 °F 12.9 °F 1019.9 in Calm     81 % 0.0 in
00:07 16.1 °F 12.8 °F 1019.9 in Calm     81 % 0.0 in
00:12 16.1 °F 13.0 °F 1019.9 in Calm     82 % 0.0 in
00:17 15.9 °F 12.8 °F 1019.9 in Calm     82 % 0.0 in
00:22 15.8 °F 12.5 °F 1019.9 in Calm     81 % 0.0 in
00:27 15.8 °F 12.7 °F 1019.9 in Calm     82 % 0.0 in
00:32 15.8 °F 12.7 °F 1019.9 in Calm     82 % 0.0 in
00:37 15.8 °F 12.9 °F 1019.9 in Calm     83 % 0.0 in
00:42 15.6 °F 12.7 °F 1019.9 in Calm     83 % 0.0 in
00:52 15.4 °F 12.7 °F 1019.9 in Calm     84 % 0.0 in
00:57 15.3 °F 12.8 °F 1019.9 in Calm     85 % 0.0 in
01:02 15.3 °F 12.8 °F 1019.9 in Calm     85 % 0.0 in
01:07 15.2 °F 12.7 °F 1020.2 in Calm     85 % 0.0 in
01:12 15.2 °F 12.7 °F 1020.2 in Calm     85 % 0.0 in
01:22 15.2 °F 12.7 °F 1020.2 in Calm     85 % 0.0 in
01:27 15.1 °F 12.8 °F 1020.2 in Calm     86 % 0.0 in
01:32 15.0 °F 12.7 °F 1020.2 in Calm     86 % 0.0 in
01:37 14.9 °F 12.6 °F 1020.2 in Calm     86 % 0.0 in
01:42 14.8 °F 12.7 °F 1020.2 in Calm     87 % 0.0 in
01:47 14.8 °F 12.7 °F 1020.2 in Calm     87 % 0.0 in
01:52 14.7 °F 12.6 °F 1020.2 in Calm     87 % 0.0 in
01:57 14.7 °F 12.6 °F 1020.2 in Calm     87 % 0.0 in
02:02 14.6 °F 12.5 °F 1020.2 in Calm     87 % 0.0 in
02:07 14.6 °F 12.6 °F 1020.2 in Calm     88 % 0.0 in
02:12 14.4 °F 12.3 °F 1020.2 in Calm     87 % 0.0 in
02:17 14.4 °F 12.4 °F 1020.2 in Calm     88 % 0.0 in
02:22 14.3 °F 12.3 °F 1020.2 in Calm     88 % 0.0 in
02:32 14.2 °F 12.2 °F 1020.2 in Calm     88 % 0.0 in
02:37 14.0 °F 12.0 °F 1020.2 in Calm     88 % 0.0 in
02:42 13.9 °F 11.9 °F 1020.2 in Calm     88 % 0.0 in
02:47 13.8 °F 12.0 °F 1020.2 in Calm     89 % 0.0 in
02:52 13.8 °F 12.0 °F 1020.2 in Calm     89 % 0.0 in
02:57 13.7 °F 11.9 °F 1020.2 in Calm     89 % 0.0 in
03:02 13.6 °F 11.8 °F 1020.2 in Calm     89 % 0.0 in
03:07 13.6 °F 11.8 °F 1020.2 in Calm     89 % 0.0 in
03:12 13.3 °F 11.5 °F 1020.2 in Calm     89 % 0.0 in
03:17 13.3 °F 11.7 °F 1020.2 in Calm     90 % 0.0 in
03:22 13.2 °F 11.6 °F 1020.2 in Calm     90 % 0.0 in
03:27 13.1 °F 11.5 °F 1020.2 in Calm     90 % 0.0 in
03:32 13.0 °F 11.4 °F 1020.2 in Calm     90 % 0.0 in
03:37 12.9 °F 11.5 °F 1020.2 in Calm     91 % 0.0 in
03:42 12.9 °F 11.5 °F 1019.9 in Calm     91 % 0.0 in
03:47 12.8 °F 11.4 °F 1020.2 in Calm     91 % 0.0 in
03:52 12.7 °F 11.3 °F 1020.2 in Calm     91 % 0.0 in
03:57 12.7 °F 11.4 °F 1020.2 in Calm     92 % 0.0 in
04:02 12.8 °F 11.5 °F 1020.2 in Calm     92 % 0.0 in
04:07 12.8 °F 11.4 °F 1020.2 in Calm     91 % 0.0 in
04:12 12.7 °F 11.3 °F 1020.2 in Calm     91 % 0.0 in
04:17 12.6 °F 11.2 °F 1020.2 in Calm     91 % 0.0 in
04:22 12.6 °F 11.3 °F 1020.2 in Calm     92 % 0.0 in
04:27 12.6 °F 11.3 °F 1020.2 in Calm     92 % 0.0 in
04:32 12.7 °F 11.4 °F 1020.2 in Calm     92 % 0.0 in
04:37 12.7 °F 11.4 °F 1020.2 in Calm     92 % 0.0 in
04:42 12.7 °F 11.3 °F 1020.2 in Calm     91 % 0.0 in
04:47 12.6 °F 11.2 °F 1020.2 in Calm     91 % 0.0 in
04:52 12.5 °F 11.1 °F 1020.2 in Calm     91 % 0.0 in
05:02 12.4 °F 11.1 °F 1020.2 in Calm     92 % 0.0 in
05:12 12.1 °F 10.8 °F 1020.2 in Calm     92 % 0.0 in
05:17 12.0 °F 10.7 °F 1020.2 in Calm     92 % 0.0 in
05:22 11.9 °F 10.8 °F 1020.2 in Calm     93 % 0.0 in
05:27 11.9 °F 10.8 °F 1020.2 in Calm     93 % 0.0 in
05:32 11.7 °F 10.6 °F 1020.2 in Calm     93 % 0.0 in
05:37 11.6 °F 10.5 °F 1020.2 in NW 1.6 mph   93 % 0.0 in
05:42 11.7 °F 10.8 °F 1020.5 in WNW 1.6 mph 1.6 mph 94 % 0.0 in
05:47 11.8 °F 10.9 °F 1020.5 in Calm   1.6 mph 94 % 0.0 in
05:52 11.8 °F 10.9 °F 1020.5 in Calm   1.6 mph 94 % 0.0 in
05:57 11.8 °F 10.9 °F 1020.5 in Calm   1.6 mph 94 % 0.0 in
06:02 11.8 °F 10.7 °F 1020.5 in Calm   1.6 mph 93 % 0.0 in
06:07 11.6 °F 10.5 °F 1020.5 in Calm   1.6 mph 93 % 0.0 in
06:12 11.6 °F 10.7 °F 1020.5 in Calm   1.6 mph 94 % 0.0 in
06:17 11.6 °F 10.7 °F 1020.5 in Calm   1.6 mph 94 % 0.0 in
06:22 11.6 °F 10.7 °F 1020.5 in Calm   1.6 mph 94 % 0.0 in
06:32 11.9 °F 11.0 °F 1020.5 in Calm     94 % 0.0 in
06:42 12.4 °F 11.5 °F 1020.5 in Calm   1.6 mph 94 % 0.0 in
06:47 12.8 °F 11.9 °F 1020.5 in Calm   1.6 mph 94 % 0.0 in
06:52 13.5 °F 12.4 °F 1020.5 in Calm   1.6 mph 93 % 0.0 in
06:57 13.7 °F 12.4 °F 1020.5 in Calm     92 % 0.0 in
07:02 14.1 °F 12.7 °F 1020.5 in Calm     91 % 0.0 in
07:12 14.7 °F 12.7 °F 1020.5 in Calm     88 % 0.0 in
07:17 15.3 °F 13.1 °F 1020.5 in Calm     87 % 0.0 in
07:22 15.8 °F 13.3 °F 1020.9 in Calm     85 % 0.0 in
07:32 16.6 °F 13.1 °F 1020.9 in Calm     80 % 0.0 in
07:37 16.7 °F 13.2 °F 1020.9 in Calm     80 % 0.0 in
07:42 16.8 °F 13.3 °F 1020.9 in Calm   1.6 mph 80 % 0.0 in
07:47 16.7 °F 13.2 °F 1020.9 in Calm   1.6 mph 80 % 0.0 in
07:52 16.5 °F 13.4 °F 1020.9 in Calm   1.6 mph 82 % 0.0 in
07:57 16.3 °F 13.4 °F 1021.2 in Calm   1.6 mph 83 % 0.0 in
08:02 15.9 °F 13.4 °F 1021.2 in SSW 3.2 mph 3.2 mph 85 % 0.0 in
08:07 15.8 °F 13.5 °F 1021.2 in Calm   4.8 mph 86 % 0.0 in
08:12 15.8 °F 13.6 °F 1021.2 in South 1.6 mph 4.8 mph 87 % 0.0 in
08:17 15.9 °F 13.9 °F 1021.2 in Calm   6.4 mph 88 % 0.0 in
08:22 16.3 °F 14.3 °F 1021.2 in SW 1.6 mph 6.4 mph 88 % 0.0 in
08:27 16.4 °F 14.2 °F 1021.2 in SSW 1.6 mph 4.8 mph 87 % 0.0 in
08:32 16.5 °F 14.3 °F 1021.6 in Calm   4.8 mph 87 % 0.0 in
08:37 16.7 °F 14.5 °F 1021.2 in SE 4.8 mph 6.4 mph 87 % 0.0 in
08:47 17.1 °F 14.6 °F 1021.2 in SW 8.0 mph 8.0 mph 85 % 0.0 in
08:52 17.2 °F 14.7 °F 1021.6 in SSW 1.6 mph 8.0 mph 85 % 0.0 in
08:57 17.3 °F 14.6 °F 1021.6 in SSW 3.2 mph 8.0 mph 84 % 0.0 in
09:02 17.4 °F 14.7 °F 1021.6 in SSW 1.6 mph 8.0 mph 84 % 0.0 in
09:07 17.7 °F 15.0 °F 1021.6 in SSW 3.2 mph 8.0 mph 84 % 0.0 in
09:12 17.7 °F 14.8 °F 1021.6 in SW 4.8 mph 8.0 mph 83 % 0.0 in
09:17 17.8 °F 14.9 °F 1021.6 in SW 3.2 mph 9.7 mph 83 % 0.0 in
09:22 17.9 °F 15.0 °F 1021.6 in South 3.2 mph 9.7 mph 83 % 0.0 in
09:27 18.0 °F 14.9 °F 1021.6 in West 1.6 mph 9.7 mph 82 % 0.0 in
09:32 18.3 °F 15.2 °F 1021.6 in SW 1.6 mph 9.7 mph 82 % 0.0 in
09:37 18.3 °F 14.8 °F 1021.6 in WSW 6.4 mph 9.7 mph 80 % 0.0 in
09:42 18.4 °F 14.9 °F 1021.6 in South 3.2 mph 9.7 mph 80 % 0.0 in
09:47 18.6 °F 15.1 °F 1021.6 in SSW 3.2 mph 9.7 mph 80 % 0.0 in
09:52 19.1 °F 15.4 °F 1021.6 in SW 6.4 mph 9.7 mph 79 % 0.0 in
09:57 19.2 °F 15.5 °F 1021.6 in SSE 3.2 mph 9.7 mph 79 % 0.0 in
10:02 19.4 °F 15.5 °F 1021.6 in SW 1.6 mph 9.7 mph 78 % 0.0 in
10:12 19.9 °F 14.9 °F 1021.6 in WSW 4.8 mph 9.7 mph 73 % 0.0 in
10:17 19.8 °F 14.6 °F 1021.6 in SSW 8.0 mph 11.3 mph 72 % 0.0 in
10:22 20.2 °F 15.0 °F 1021.6 in SW 6.4 mph 11.3 mph 72 % 0.0 in
10:32 20.9 °F 14.8 °F 1021.6 in WSW 6.4 mph 11.3 mph 68 % 0.0 in
10:37 21.1 °F 14.5 °F 1021.6 in ESE 1.6 mph 9.7 mph 66 % 0.0 in
10:42 21.2 °F 14.4 °F 1021.6 in South 3.2 mph 9.7 mph 65 % 0.0 in
10:47 21.4 °F 14.5 °F 1021.6 in SW 6.4 mph 9.7 mph 65 % 0.0 in
10:52 21.6 °F 14.5 °F 1021.6 in SE 1.6 mph 9.7 mph 64 % 0.0 in
10:57 21.6 °F 13.8 °F 1021.6 in WSW 4.8 mph 11.3 mph 61 % 0.0 in
11:02 21.6 °F 14.0 °F 1021.6 in SSW 4.8 mph 11.3 mph 62 % 0.0 in
11:07 21.8 °F 13.2 °F 1021.6 in SW 6.4 mph 11.3 mph 58 % 0.0 in
11:12 21.7 °F 13.3 °F 1021.6 in Calm   11.3 mph 59 % 0.0 in
11:17 22.2 °F 13.8 °F 1021.9 in SSE 6.4 mph 11.3 mph 59 % 0.0 in
11:27 22.6 °F 13.9 °F 1021.6 in SW 1.6 mph 9.7 mph 58 % 0.0 in
11:32 22.7 °F 14.3 °F 1021.9 in WNW 6.4 mph 9.7 mph 59 % 0.0 in
11:37 22.7 °F 14.3 °F 1021.6 in South 1.6 mph 11.3 mph 59 % 0.0 in
11:42 22.7 °F 13.2 °F 1021.9 in WNW 3.2 mph 11.3 mph 55 % 0.0 in
11:47 22.8 °F 13.8 °F 1021.9 in SE 3.2 mph 9.7 mph 57 % 0.0 in
11:57 23.1 °F 13.6 °F 1021.6 in South 6.4 mph 12.9 mph 55 % 0.0 in
12:02 23.1 °F 13.3 °F 1021.6 in Calm   12.9 mph 54 % 0.0 in
12:12 23.2 °F 13.9 °F 1021.6 in SW 9.7 mph 9.7 mph 56 % 0.0 in
12:17 23.4 °F 13.0 °F 1021.6 in WSW 1.6 mph 9.7 mph 52 % 0.0 in
12:22 23.5 °F 13.7 °F 1021.6 in SSW 3.2 mph 9.7 mph 54 % 0.0 in
12:27 23.3 °F 13.5 °F 1021.6 in Calm   9.7 mph 54 % 0.0 in
12:32 23.7 °F 13.6 °F 1021.6 in SSW 1.6 mph 9.7 mph 53 % 0.0 in
12:37 23.8 °F 13.1 °F 1021.6 in SW 9.7 mph 9.7 mph 51 % 0.0 in
12:42 24.0 °F 13.2 °F 1021.6 in West 1.6 mph 12.9 mph 51 % 0.0 in
12:52 23.5 °F 12.2 °F 1021.6 in SW 1.6 mph 14.5 mph 49 % 0.0 in
12:57 23.6 °F 12.3 °F 1021.6 in SW 9.7 mph 14.5 mph 49 % 0.0 in
13:02 23.8 °F 12.8 °F 1021.6 in SSW 9.7 mph 12.9 mph 50 % 0.0 in
13:07 23.8 °F 12.1 °F 1021.6 in WSW 3.2 mph 14.5 mph 48 % 0.0 in
13:12 24.1 °F 12.4 °F 1021.2 in SSW 1.6 mph 14.5 mph 48 % 0.0 in
13:17 24.1 °F 12.1 °F 1021.2 in SSW 6.4 mph 14.5 mph 47 % 0.0 in
13:22 24.2 °F 13.1 °F 1021.2 in SSW 8.0 mph 14.5 mph 50 % 0.0 in
13:27 24.1 °F 12.1 °F 1021.2 in Calm   14.5 mph 47 % 0.0 in
13:32 24.3 °F 12.6 °F 1021.2 in SW 8.0 mph 14.5 mph 48 % 0.0 in
13:42 24.6 °F 12.2 °F 1021.2 in East 1.6 mph 12.9 mph 46 % 0.0 in
13:47 24.7 °F 12.0 °F 1021.2 in Calm   12.9 mph 45 % 0.0 in
13:52 25.1 °F 12.3 °F 1020.9 in SW 8.0 mph 12.9 mph 45 % 0.0 in
14:02 24.9 °F 11.5 °F 1021.2 in SSW 3.2 mph 16.1 mph 43 % 0.0 in
14:07 24.8 °F 10.7 °F 1020.9 in SSE 1.6 mph 16.1 mph 41 % 0.0 in
14:12 25.1 °F 10.9 °F 1021.2 in West 4.8 mph 14.5 mph 41 % 0.0 in
14:17 24.8 °F 11.0 °F 1021.2 in West 1.6 mph 14.5 mph 42 % 0.0 in
14:23 24.8 °F 12.1 °F 1021.2 in SW 6.4 mph 14.5 mph 45 % 0.0 in
14:32 25.4 °F 12.3 °F 1020.9 in SW 9.7 mph 11.3 mph 44 % 0.0 in
14:37 25.1 °F 11.3 °F 1020.9 in Calm   12.9 mph 42 % 0.0 in
14:42 25.5 °F 11.6 °F 1020.9 in Calm   12.9 mph 42 % 0.0 in
14:47 25.8 °F 11.2 °F 1020.5 in West 4.8 mph 12.9 mph 40 % 0.0 in
14:52 25.8 °F 11.9 °F 1020.9 in SW 8.0 mph 12.9 mph 42 % 0.0 in
14:57 25.4 °F 11.2 °F 1020.9 in West 1.6 mph 12.9 mph 41 % 0.0 in
15:02 25.6 °F 10.2 °F 1020.9 in SW 4.8 mph 12.9 mph 38 % 0.0 in
15:12 26.0 °F 11.4 °F 1020.9 in South 4.8 mph 9.7 mph 40 % 0.0 in
15:17 25.9 °F 12.0 °F 1020.9 in SW 9.7 mph 12.9 mph 42 % 0.0 in
15:22 25.7 °F 11.8 °F 1020.5 in West 4.8 mph 14.5 mph 42 % 0.0 in
15:32 25.7 °F 11.8 °F 1020.5 in WSW 4.8 mph 14.5 mph 42 % 0.0 in
15:37 25.8 °F 11.9 °F 1020.5 in Calm   14.5 mph 42 % 0.0 in
15:42 26.2 °F 11.9 °F 1020.5 in WSW 3.2 mph 14.5 mph 41 % 0.0 in
15:47 26.0 °F 12.1 °F 1020.5 in WSW 6.4 mph 8.0 mph 42 % 0.0 in
15:52 26.2 °F 11.5 °F 1020.5 in SSW 4.8 mph 12.9 mph 40 % 0.0 in
15:57 26.2 °F 11.9 °F 1020.5 in SE 1.6 mph 12.9 mph 41 % 0.0 in
16:02 26.4 °F 11.7 °F 1020.5 in East 3.2 mph 12.9 mph 40 % 0.0 in
16:07 26.3 °F 12.4 °F 1020.5 in Calm   12.9 mph 42 % 0.0 in
16:12 26.7 °F 12.0 °F 1020.2 in ENE 3.2 mph 8.0 mph 40 % 0.0 in
16:22 26.9 °F 12.5 °F 1020.2 in SSE 6.4 mph 6.4 mph 41 % 0.0 in
16:27 26.9 °F 12.5 °F 1020.5 in SW 4.8 mph 9.7 mph 41 % 0.0 in
16:32 26.9 °F 11.4 °F 1020.5 in SW 4.8 mph 9.7 mph 38 % 0.0 in
16:37 26.9 °F 11.8 °F 1020.2 in SSW 6.4 mph 14.5 mph 39 % 0.0 in
16:42 27.1 °F 10.7 °F 1020.2 in SSW 1.6 mph 14.5 mph 36 % 0.0 in
16:52 27.2 °F 11.2 °F 1020.2 in Calm   11.3 mph 37 % 0.0 in
17:02 27.2 °F 11.6 °F 1020.2 in South 1.6 mph 11.3 mph 38 % 0.0 in
17:07 27.5 °F 12.3 °F 1020.2 in ESE 1.6 mph 8.0 mph 39 % 0.0 in
17:12 27.4 °F 13.0 °F 1020.2 in SW 3.2 mph 8.0 mph 41 % 0.0 in
17:17 27.4 °F 13.4 °F 1020.2 in Calm   8.0 mph 42 % 0.0 in
17:22 27.8 °F 13.3 °F 1020.2 in SW 6.4 mph 8.0 mph 41 % 0.0 in
17:32 27.1 °F 12.3 °F 1020.2 in SW 3.2 mph 6.4 mph 40 % 0.0 in
17:37 27.3 °F 13.3 °F 1019.9 in Calm   6.4 mph 42 % 0.0 in
17:42 27.4 °F 13.4 °F 1019.9 in SSW 1.6 mph 6.4 mph 42 % 0.0 in
17:47 27.3 °F 12.9 °F 1019.9 in South 4.8 mph 9.7 mph 41 % 0.0 in
17:52 27.3 °F 13.3 °F 1019.9 in SSE 3.2 mph 9.7 mph 42 % 0.0 in
17:57 27.8 °F 13.7 °F 1019.9 in Calm   9.7 mph 42 % 0.0 in
18:02 27.6 °F 13.9 °F 1019.9 in ESE 4.8 mph 9.7 mph 43 % 0.0 in
18:07 27.2 °F 13.2 °F 1019.9 in Calm   6.4 mph 42 % 0.0 in
18:12 27.6 °F 13.5 °F 1019.9 in WSW 3.2 mph 6.4 mph 42 % 0.0 in
18:17 27.8 °F 13.3 °F 1019.9 in SW 3.2 mph 6.4 mph 41 % 0.0 in
18:22 27.9 °F 13.8 °F 1019.9 in Calm   6.4 mph 42 % 0.0 in
18:32 27.6 °F 14.2 °F 1019.9 in Calm   6.4 mph 44 % 0.0 in
18:42 27.7 °F 13.3 °F 1019.9 in SSW 1.6 mph 8.0 mph 41 % 0.0 in
18:47 27.6 °F 12.8 °F 1019.9 in SW 3.2 mph 8.0 mph 40 % 0.0 in
18:52 27.4 °F 13.4 °F 1019.9 in Calm   8.0 mph 42 % 0.0 in
18:57 27.4 °F 13.4 °F 1019.9 in SW 4.8 mph 8.0 mph 42 % 0.0 in
19:02 27.3 °F 13.3 °F 1019.9 in SSW 4.8 mph 8.0 mph 42 % 0.0 in
19:07 27.2 °F 12.8 °F 1019.9 in NW 3.2 mph 6.4 mph 41 % 0.0 in
19:12 27.3 °F 13.3 °F 1019.9 in WSW 1.6 mph 6.4 mph 42 % 0.0 in
19:17 27.1 °F 12.7 °F 1019.9 in WSW 3.2 mph 6.4 mph 41 % 0.0 in
19:22 27.3 °F 13.6 °F 1019.9 in Calm   6.4 mph 43 % 0.0 in
19:27 28.0 °F 13.9 °F 1019.9 in Calm   6.4 mph 42 % 0.0 in
19:32 28.4 °F 13.9 °F 1019.9 in Calm   6.4 mph 41 % 0.0 in
19:37 28.3 °F 13.4 °F 1019.9 in Calm   1.6 mph 40 % 0.0 in
19:42 27.6 °F 13.2 °F 1019.9 in SW 1.6 mph 4.8 mph 41 % 0.0 in
19:47 27.5 °F 13.4 °F 1019.9 in Calm   4.8 mph 42 % 0.0 in
19:52 27.4 °F 12.6 °F 1019.9 in West 4.8 mph 4.8 mph 40 % 0.0 in
19:57 27.3 °F 13.3 °F 1019.9 in West 1.6 mph 4.8 mph 42 % 0.0 in
20:02 27.4 °F 12.6 °F 1019.9 in WNW 1.6 mph 4.8 mph 40 % 0.0 in
20:07 27.2 °F 13.2 °F 1019.9 in Calm   4.8 mph 42 % 0.0 in
20:12 27.1 °F 13.1 °F 1019.9 in Calm   4.8 mph 42 % 0.0 in
20:17 27.4 °F 13.7 °F 1019.9 in Calm   4.8 mph 43 % 0.0 in
20:22 27.7 °F 13.3 °F 1019.9 in Calm   4.8 mph 41 % 0.0 in
20:32 27.8 °F 13.7 °F 1019.9 in Calm     42 % 0.0 in
20:37 27.8 °F 13.3 °F 1019.9 in Calm     41 % 0.0 in
20:42 28.2 °F 14.4 °F 1019.9 in Calm     43 % 0.0 in
20:47 28.2 °F 14.4 °F 1019.9 in Calm     43 % 0.0 in
20:52 27.9 °F 16.2 °F 1019.9 in Calm     49 % 0.0 in
20:57 27.7 °F 16.0 °F 1019.9 in Calm     49 % 0.0 in
21:02 27.7 °F 15.0 °F 1019.9 in Calm     46 % 0.0 in
21:07 27.1 °F 15.8 °F 1019.9 in Calm     50 % 0.0 in
21:12 26.9 °F 15.0 °F 1019.9 in Calm     48 % 0.0 in
21:17 26.9 °F 14.6 °F 1019.9 in Calm     47 % 0.0 in
21:22 26.6 °F 14.7 °F 1019.9 in Calm     48 % 0.0 in
21:27 25.5 °F 14.9 °F 1019.9 in Calm     52 % 0.0 in
21:32 24.5 °F 14.3 °F 1019.9 in Calm     53 % 0.0 in
21:37 23.5 °F 13.4 °F 1019.9 in Calm     53 % 0.0 in
21:42 22.8 °F 13.8 °F 1020.2 in Calm     57 % 0.0 in
21:47 22.2 °F 13.0 °F 1020.2 in Calm     56 % 0.0 in
21:52 22.0 °F 13.4 °F 1020.2 in Calm     58 % 0.0 in
21:57 21.9 °F 13.5 °F 1020.2 in Calm     59 % 0.0 in
22:02 21.7 °F 13.8 °F 1020.2 in Calm     61 % 0.0 in
22:07 21.3 °F 13.7 °F 1020.2 in Calm     62 % 0.0 in
22:12 21.1 °F 14.0 °F 1020.2 in Calm     64 % 0.0 in
22:17 20.7 °F 13.2 °F 1020.2 in Calm     62 % 0.0 in
22:22 20.6 °F 13.6 °F 1020.2 in Calm     64 % 0.0 in
22:27 20.4 °F 14.1 °F 1020.2 in Calm     67 % 0.0 in
22:32 20.2 °F 13.9 °F 1020.2 in Calm     67 % 0.0 in
22:37 20.1 °F 14.0 °F 1020.2 in Calm     68 % 0.0 in
22:42 19.9 °F 13.8 °F 1020.5 in Calm     68 % 0.0 in
22:47 20.0 °F 13.7 °F 1020.5 in Calm     67 % 0.0 in
22:52 19.9 °F 13.8 °F 1020.5 in Calm     68 % 0.0 in
22:57 19.8 °F 13.7 °F 1020.5 in Calm     68 % 0.0 in
23:02 19.6 °F 13.8 °F 1020.5 in Calm     69 % 0.0 in
23:07 19.6 °F 13.8 °F 1020.5 in Calm     69 % 0.0 in
23:12 19.4 °F 13.8 °F 1020.5 in Calm     70 % 0.0 in
23:17 19.1 °F 13.9 °F 1020.5 in Calm     72 % 0.0 in
23:22 18.6 °F 13.9 °F 1020.5 in Calm     74 % 0.0 in
23:27 18.4 °F 13.7 °F 1020.5 in Calm     74 % 0.0 in
23:32 18.4 °F 13.7 °F 1020.5 in Calm     74 % 0.0 in
23:37 18.3 °F 13.4 °F 1020.5 in Calm     73 % 0.0 in
23:42 18.0 °F 13.5 °F 1020.5 in Calm     75 % 0.0 in
23:47 17.9 °F 13.4 °F 1020.5 in Calm     75 % 0.0 in
23:57 17.9 °F 13.4 °F 1020.5 in Calm     75 % 0.0 in
Meteo18
Compliments of Weather Underground - 4 mb

Script developed by  Jim McMurry - jmcmurry@mwt.net Adapted for the template by  Wim van der Kuil - Leuven-Template.eu

You find our weather info also at:

European Weather Network

Weather Underground

Equipment we use:

Weather-station
Davis Vue

Weather-program
Meteobridge

Weather-server
Raspberry PI 2 B+

Provider
1 and 1

Davis Vue

Meteobridge

Raspberry PI 2 B+

1 and 1